sensor_id;sensor_type;location;lat;lon;timestamp;P1;durP1;ratioP1;P2;durP2;ratioP2
7931;SDS011;4011;49.424;10.894;2024-01-15T00:01:31;17.05;;;8.57;;
7931;SDS011;4011;49.424;10.894;2024-01-15T00:06:55;13.95;;;9.43;;
7931;SDS011;4011;49.424;10.894;2024-01-15T00:12:16;13.88;;;8.50;;
7931;SDS011;4011;49.424;10.894;2024-01-15T00:17:40;15.60;;;8.57;;
7931;SDS011;4011;49.424;10.894;2024-01-15T00:23:17;15.48;;;8.60;;
7931;SDS011;4011;49.424;10.894;2024-01-15T00:28:53;14.85;;;8.35;;
7931;SDS011;4011;49.424;10.894;2024-01-15T00:34:31;13.45;;;8.63;;
7931;SDS011;4011;49.424;10.894;2024-01-15T00:39:58;14.07;;;8.07;;
7931;SDS011;4011;49.424;10.894;2024-01-15T00:45:34;12.13;;;7.75;;
7931;SDS011;4011;49.424;10.894;2024-01-15T00:51:09;12.50;;;8.23;;
7931;SDS011;4011;49.424;10.894;2024-01-15T01:08:31;12.18;;;7.93;;
7931;SDS011;4011;49.424;10.894;2024-01-15T01:13:56;14.52;;;7.68;;
7931;SDS011;4011;49.424;10.894;2024-01-15T01:19:27;13.25;;;7.38;;
7931;SDS011;4011;49.424;10.894;2024-01-15T02:17:41;10.80;;;6.68;;
7931;SDS011;4011;49.424;10.894;2024-01-15T06:29:21;6.88;;;3.97;;
7931;SDS011;4011;49.424;10.894;2024-01-15T06:34:57;6.70;;;4.45;;
7931;SDS011;4011;49.424;10.894;2024-01-15T06:40:27;6.05;;;3.80;;
7931;SDS011;4011;49.424;10.894;2024-01-15T06:46:12;6.90;;;4.55;;
7931;SDS011;4011;49.424;10.894;2024-01-15T06:51:50;7.90;;;4.28;;
7931;SDS011;4011;49.424;10.894;2024-01-15T06:57:17;7.68;;;4.03;;
7931;SDS011;4011;49.424;10.894;2024-01-15T07:02:43;8.25;;;5.25;;
7931;SDS011;4011;49.424;10.894;2024-01-15T07:08:19;6.63;;;4.07;;
7931;SDS011;4011;49.424;10.894;2024-01-15T07:14:01;6.10;;;4.60;;
7931;SDS011;4011;49.424;10.894;2024-01-15T07:31:21;6.55;;;4.07;;
7931;SDS011;4011;49.424;10.894;2024-01-15T07:36:57;6.20;;;3.75;;
7931;SDS011;4011;49.424;10.894;2024-01-15T07:48:30;6.93;;;4.07;;
7931;SDS011;4011;49.424;10.894;2024-01-15T08:06:06;5.45;;;3.35;;
7931;SDS011;4011;49.424;10.894;2024-01-15T08:11:30;6.47;;;4.53;;
7931;SDS011;4011;49.424;10.894;2024-01-15T08:16:52;5.53;;;3.60;;
7931;SDS011;4011;49.424;10.894;2024-01-15T08:22:16;6.35;;;3.78;;
7931;SDS011;4011;49.424;10.894;2024-01-15T08:27:38;7.55;;;4.00;;
7931;SDS011;4011;49.424;10.894;2024-01-15T08:33:14;5.28;;;3.40;;
7931;SDS011;4011;49.424;10.894;2024-01-15T10:41:37;4.55;;;3.20;;
7931;SDS011;4011;49.424;10.894;2024-01-15T10:47:12;4.25;;;2.70;;
7931;SDS011;4011;49.424;10.894;2024-01-15T10:52:48;4.50;;;3.58;;
7931;SDS011;4011;49.424;10.894;2024-01-15T11:45:16;4.72;;;3.15;;
7931;SDS011;4011;49.424;10.894;2024-01-15T11:50:42;4.32;;;3.10;;
7931;SDS011;4011;49.424;10.894;2024-01-15T11:56:10;3.72;;;2.80;;
7931;SDS011;4011;49.424;10.894;2024-01-15T12:01:35;4.13;;;3.72;;
7931;SDS011;4011;49.424;10.894;2024-01-15T12:06:57;4.18;;;3.30;;
7931;SDS011;4011;49.424;10.894;2024-01-15T12:12:23;3.97;;;2.78;;
7931;SDS011;4011;49.424;10.894;2024-01-15T12:17:49;4.35;;;3.45;;
7931;SDS011;4011;49.424;10.894;2024-01-15T12:23:10;3.80;;;3.25;;
7931;SDS011;4011;49.424;10.894;2024-01-15T12:28:33;5.20;;;3.08;;
7931;SDS011;4011;49.424;10.894;2024-01-15T12:33:57;3.85;;;2.70;;
7931;SDS011;4011;49.424;10.894;2024-01-15T12:39:22;4.32;;;3.53;;
7931;SDS011;4011;49.424;10.894;2024-01-15T12:44:44;4.38;;;3.45;;
7931;SDS011;4011;49.424;10.894;2024-01-15T12:50:08;4.72;;;2.97;;
7931;SDS011;4011;49.424;10.894;2024-01-15T12:55:31;4.38;;;2.67;;
7931;SDS011;4011;49.424;10.894;2024-01-15T13:00:54;5.18;;;3.47;;
7931;SDS011;4011;49.424;10.894;2024-01-15T13:06:23;4.63;;;3.63;;
7931;SDS011;4011;49.424;10.894;2024-01-15T13:11:50;4.78;;;2.92;;
7931;SDS011;4011;49.424;10.894;2024-01-15T13:17:13;4.95;;;3.08;;
7931;SDS011;4011;49.424;10.894;2024-01-15T13:22:38;4.70;;;3.83;;
7931;SDS011;4011;49.424;10.894;2024-01-15T13:28:00;4.65;;;2.75;;
7931;SDS011;4011;49.424;10.894;2024-01-15T13:33:22;4.40;;;2.80;;
7931;SDS011;4011;49.424;10.894;2024-01-15T13:38:50;5.72;;;3.00;;
7931;SDS011;4011;49.424;10.894;2024-01-15T13:44:12;3.95;;;3.42;;
7931;SDS011;4011;49.424;10.894;2024-01-15T13:49:40;4.65;;;2.88;;
7931;SDS011;4011;49.424;10.894;2024-01-15T13:55:04;4.38;;;2.33;;
7931;SDS011;4011;49.424;10.894;2024-01-15T14:00:27;3.70;;;2.88;;
7931;SDS011;4011;49.424;10.894;2024-01-15T14:05:52;4.32;;;2.80;;
7931;SDS011;4011;49.424;10.894;2024-01-15T14:11:17;4.65;;;2.75;;
7931;SDS011;4011;49.424;10.894;2024-01-15T14:16:38;4.00;;;2.53;;
7931;SDS011;4011;49.424;10.894;2024-01-15T14:22:00;4.43;;;3.15;;
7931;SDS011;4011;49.424;10.894;2024-01-15T14:27:27;3.97;;;3.33;;
7931;SDS011;4011;49.424;10.894;2024-01-15T14:32:53;3.97;;;2.50;;
7931;SDS011;4011;49.424;10.894;2024-01-15T14:38:18;4.00;;;2.50;;
7931;SDS011;4011;49.424;10.894;2024-01-15T14:43:42;4.05;;;3.03;;
7931;SDS011;4011;49.424;10.894;2024-01-15T14:49:05;3.55;;;2.50;;
7931;SDS011;4011;49.424;10.894;2024-01-15T14:54:29;3.97;;;2.42;;
7931;SDS011;4011;49.424;10.894;2024-01-15T14:59:53;3.50;;;2.60;;
7931;SDS011;4011;49.424;10.894;2024-01-15T15:05:15;4.15;;;3.75;;
7931;SDS011;4011;49.424;10.894;2024-01-15T15:10:37;3.95;;;2.85;;
7931;SDS011;4011;49.424;10.894;2024-01-15T15:16:01;3.97;;;2.50;;
7931;SDS011;4011;49.424;10.894;2024-01-15T15:21:24;4.47;;;3.65;;
7931;SDS011;4011;49.424;10.894;2024-01-15T15:26:47;4.38;;;3.90;;
7931;SDS011;4011;49.424;10.894;2024-01-15T15:32:14;3.78;;;2.88;;
7931;SDS011;4011;49.424;10.894;2024-01-15T15:42:57;4.13;;;2.55;;
7931;SDS011;4011;49.424;10.894;2024-01-15T15:48:23;4.03;;;3.55;;
7931;SDS011;4011;49.424;10.894;2024-01-15T15:53:45;4.75;;;3.28;;
7931;SDS011;4011;49.424;10.894;2024-01-15T15:59:07;4.40;;;3.10;;
7931;SDS011;4011;49.424;10.894;2024-01-15T16:04:30;3.83;;;2.47;;
7931;SDS011;4011;49.424;10.894;2024-01-15T16:09:52;4.00;;;3.55;;
7931;SDS011;4011;49.424;10.894;2024-01-15T16:15:16;4.07;;;3.50;;
7931;SDS011;4011;49.424;10.894;2024-01-15T16:20:42;3.83;;;2.78;;
7931;SDS011;4011;49.424;10.894;2024-01-15T16:26:04;3.15;;;2.25;;
7931;SDS011;4011;49.424;10.894;2024-01-15T16:31:25;3.65;;;3.25;;
7931;SDS011;4011;49.424;10.894;2024-01-15T16:36:49;4.30;;;3.78;;
7931;SDS011;4011;49.424;10.894;2024-01-15T16:42:10;4.30;;;3.13;;
7931;SDS011;4011;49.424;10.894;2024-01-15T16:47:32;4.68;;;2.95;;
7931;SDS011;4011;49.424;10.894;2024-01-15T16:52:59;4.22;;;3.30;;
7931;SDS011;4011;49.424;10.894;2024-01-15T16:58:21;4.28;;;3.80;;
7931;SDS011;4011;49.424;10.894;2024-01-15T17:03:43;4.00;;;2.78;;
7931;SDS011;4011;49.424;10.894;2024-01-15T17:09:06;3.83;;;3.10;;
7931;SDS011;4011;49.424;10.894;2024-01-15T17:14:28;4.47;;;3.25;;
7931;SDS011;4011;49.424;10.894;2024-01-15T17:19:50;6.00;;;3.90;;
7931;SDS011;4011;49.424;10.894;2024-01-15T17:25:15;3.78;;;2.53;;
7931;SDS011;4011;49.424;10.894;2024-01-15T17:30:37;3.70;;;3.22;;
7931;SDS011;4011;49.424;10.894;2024-01-15T17:35:59;3.53;;;2.63;;
7931;SDS011;4011;49.424;10.894;2024-01-15T17:41:22;4.63;;;4.18;;
7931;SDS011;4011;49.424;10.894;2024-01-15T17:46:44;3.97;;;3.03;;
7931;SDS011;4011;49.424;10.894;2024-01-15T17:52:07;3.75;;;2.58;;
7931;SDS011;4011;49.424;10.894;2024-01-15T17:57:31;4.10;;;2.80;;
7931;SDS011;4011;49.424;10.894;2024-01-15T18:02:52;4.60;;;4.13;;
7931;SDS011;4011;49.424;10.894;2024-01-15T18:08:19;5.45;;;3.60;;
7931;SDS011;4011;49.424;10.894;2024-01-15T18:13:44;4.68;;;3.15;;
7931;SDS011;4011;49.424;10.894;2024-01-15T18:19:05;5.22;;;3.10;;
7931;SDS011;4011;49.424;10.894;2024-01-15T18:24:27;4.78;;;4.00;;
7931;SDS011;4011;49.424;10.894;2024-01-15T18:29:50;5.75;;;3.50;;
7931;SDS011;4011;49.424;10.894;2024-01-15T18:35:11;6.70;;;3.30;;
7931;SDS011;4011;49.424;10.894;2024-01-15T18:40:33;6.40;;;3.38;;
7931;SDS011;4011;49.424;10.894;2024-01-15T18:45:58;4.38;;;3.60;;
7931;SDS011;4011;49.424;10.894;2024-01-15T18:51:24;5.80;;;3.15;;
7931;SDS011;4011;49.424;10.894;2024-01-15T18:56:47;5.00;;;3.30;;
7931;SDS011;4011;49.424;10.894;2024-01-15T19:20:11;5.18;;;3.90;;
7931;SDS011;4011;49.424;10.894;2024-01-15T19:25:33;5.72;;;3.45;;
7931;SDS011;4011;49.424;10.894;2024-01-15T19:30:58;4.55;;;3.20;;
7931;SDS011;4011;49.424;10.894;2024-01-15T19:36:23;5.20;;;4.32;;
7931;SDS011;4011;49.424;10.894;2024-01-15T19:41:44;4.85;;;3.22;;
7931;SDS011;4011;49.424;10.894;2024-01-15T19:47:06;5.07;;;3.63;;
7931;SDS011;4011;49.424;10.894;2024-01-15T19:52:29;4.22;;;3.25;;
7931;SDS011;4011;49.424;10.894;2024-01-15T19:57:51;4.93;;;4.22;;
7931;SDS011;4011;49.424;10.894;2024-01-15T20:03:23;4.20;;;2.70;;
7931;SDS011;4011;49.424;10.894;2024-01-15T20:08:50;4.13;;;2.78;;
7931;SDS011;4011;49.424;10.894;2024-01-15T20:14:14;4.38;;;3.88;;
7931;SDS011;4011;49.424;10.894;2024-01-15T20:19:47;5.05;;;3.80;;
7931;SDS011;4011;49.424;10.894;2024-01-15T20:25:18;4.45;;;3.05;;
7931;SDS011;4011;49.424;10.894;2024-01-15T20:30:40;3.95;;;3.53;;
7931;SDS011;4011;49.424;10.894;2024-01-15T20:36:03;4.47;;;3.67;;
7931;SDS011;4011;49.424;10.894;2024-01-15T20:41:27;4.25;;;2.53;;
7931;SDS011;4011;49.424;10.894;2024-01-15T20:46:49;4.45;;;2.90;;
7931;SDS011;4011;49.424;10.894;2024-01-15T20:52:11;5.03;;;3.88;;
7931;SDS011;4011;49.424;10.894;2024-01-15T21:03:38;4.70;;;4.28;;
7931;SDS011;4011;49.424;10.894;2024-01-15T21:09:00;4.10;;;2.97;;
7931;SDS011;4011;49.424;10.894;2024-01-15T21:14:22;4.00;;;2.83;;
7931;SDS011;4011;49.424;10.894;2024-01-15T21:19:45;4.40;;;3.13;;
7931;SDS011;4011;49.424;10.894;2024-01-15T21:25:15;4.32;;;3.92;;
7931;SDS011;4011;49.424;10.894;2024-01-15T21:30:40;4.35;;;3.20;;
7931;SDS011;4011;49.424;10.894;2024-01-15T21:36:04;4.07;;;2.72;;
7931;SDS011;4011;49.424;10.894;2024-01-15T21:41:26;4.05;;;2.83;;
7931;SDS011;4011;49.424;10.894;2024-01-15T21:46:48;4.55;;;3.95;;
7931;SDS011;4011;49.424;10.894;2024-01-15T21:52:11;4.25;;;2.50;;
7931;SDS011;4011;49.424;10.894;2024-01-15T21:57:33;3.80;;;2.65;;
7931;SDS011;4011;49.424;10.894;2024-01-15T22:02:56;3.85;;;2.63;;
7931;SDS011;4011;49.424;10.894;2024-01-15T22:08:19;4.68;;;4.00;;
7931;SDS011;4011;49.424;10.894;2024-01-15T22:13:41;4.35;;;3.08;;
7931;SDS011;4011;49.424;10.894;2024-01-15T22:19:02;3.90;;;2.72;;
7931;SDS011;4011;49.424;10.894;2024-01-15T22:24:28;5.20;;;3.35;;
7931;SDS011;4011;49.424;10.894;2024-01-15T22:29:51;4.65;;;4.10;;
7931;SDS011;4011;49.424;10.894;2024-01-15T22:35:13;4.25;;;3.00;;
7931;SDS011;4011;49.424;10.894;2024-01-15T22:40:38;5.00;;;3.20;;
7931;SDS011;4011;49.424;10.894;2024-01-15T22:45:59;4.53;;;2.70;;
7931;SDS011;4011;49.424;10.894;2024-01-15T22:51:22;5.45;;;4.13;;
7931;SDS011;4011;49.424;10.894;2024-01-15T22:56:47;5.38;;;3.67;;
7931;SDS011;4011;49.424;10.894;2024-01-15T23:02:09;4.65;;;2.88;;
7931;SDS011;4011;49.424;10.894;2024-01-15T23:07:30;4.20;;;2.72;;
7931;SDS011;4011;49.424;10.894;2024-01-15T23:12:53;4.35;;;3.35;;
7931;SDS011;4011;49.424;10.894;2024-01-15T23:18:15;4.80;;;3.67;;
7931;SDS011;4011;49.424;10.894;2024-01-15T23:23:36;3.78;;;2.63;;
7931;SDS011;4011;49.424;10.894;2024-01-15T23:28:59;4.05;;;2.70;;
7931;SDS011;4011;49.424;10.894;2024-01-15T23:34:21;4.38;;;3.25;;
7931;SDS011;4011;49.424;10.894;2024-01-15T23:39:46;5.88;;;3.97;;
7931;SDS011;4011;49.424;10.894;2024-01-15T23:45:10;4.45;;;2.80;;
7931;SDS011;4011;49.424;10.894;2024-01-15T23:50:31;4.18;;;2.58;;
7931;SDS011;4011;49.424;10.894;2024-01-15T23:55:52;4.32;;;2.72;;
